Cambridge, MN (55008)

5:44 AM CST on March 02, 2015 (GMT -0600)
Little Africa, West Cambridge | Change Station
CLOSE
Current Station
Personal Weather Station
Location: Cambridge, MN
Elevation: 955 ft
Nearby Weather Stations
Active Advisory: Winter Weather Advisory

Elev 955 ft 45.58 °N, 93.29 °W | Updated 2 seconds ago

Clear
Clear
-1.0 °F
Feels Like -1 °F
N
0.0
Wind Variable Wind from WNW
Gusts 0.0 mph

Today
High -- | Low -- °F
--% Chance of Precip.
Yesterday
High -- | Low -- °F
Precip. -- in
6:49 AM 6:00 PM
Waxing Gibbous, 91% visible
Pressure 30.43 in
Visibility 10.0 miles
Clouds Clear
Windchill -1 °F
Dew Point -4 °F
Humidity 85%
Rainfall 0.00 in
Snow Depth Not available.
UV 0 out of 12
Pollen .40 out of 12
Air Quality Not available.
Flu Activity Not available.
METAR KCBG 021121Z AUTO 15000KT 10SM CLR M18/M22 A3043 RMK AO2

More Conditions Fewer Conditions

Pressure 30.43 in
Visibility 10.0 miles
Clouds Clear
Windchill -1 °F
Dew Point -4 °F
Humidity 85%
Rainfall 0.00 in
Snow Depth Not available.
UV 0 out of 12
Pollen .40 out of 12
Air Quality Not available.
Flu Activity Not available.
METAR KCBG 021121Z AUTO 15000KT 10SM CLR M18/M22 A3043 RMK AO2

More Conditions Fewer Conditions

10-Day Weather Forecast

Almanac

Astronomy

Mar. 02, 2015 Rise Set
Actual Time
Civil Twilight
Nautical Twilight
Astronomical Twilight
Moon
Length of Visible Light
Length of Day
Tomorrow will be .
, % of the Moon is Illuminated

Today's Extremes

State Highs State Lows

Community

WunderPhotos

Upload Photos

1,801,757 photos uploaded!

WunderBlogs® & News

Nearby

Air Quality

  Air Quality AQ Index Pollutant
Not available.

Snow Depth

Station Depth Elevation

Earthquake Activity

City Distance Mag. Time & Date
Minimum magnitude displayed is 2.5.

Coastal Water Temperatures

Place Temperature

Nearby Weather Stations

Winter Weather Advisory
Statement as of 4:08 AM CST on March 02, 2015

... Winter Weather Advisory in effect from 3 am to 9 PM CST
Tuesday...

The National Weather Service in Twin Cities/Chanhassen has issued
a Winter Weather Advisory for snow and blowing snow... which is in
effect from 3 am to 9 PM CST Tuesday.

* Timing... snow will develop late tonight and taper off Tuesday
afternoon... as winds increase behind a cold front. The strong
winds will produce areas of blowing snow through Tuesday
evening.

* Snow accumulations... 2 to 5 inches.

* Winds/visibility... wind gusts around 35 mph will produce areas
of blowing snow and visibilities less than one mile in open
areas.

* Impacts... travel will be difficult. The morning rush may be
significantly impacted by snow and the afternoon rush may be
impacted with blowing snow.

Precautionary/preparedness actions...

A Winter Weather Advisory for snow and blowing snow means that
visibilities will be limited due to a combination of falling and
blowing snow. Use caution when traveling... especially in open
areas.



Borghoff/dwe